sensor_id;sensor_type;location;lat;lon;timestamp;P1;durP1;ratioP1;P2;durP2;ratioP2
49366;SDS011;35245;52.026;8.540;2022-09-13T00:01:36;5.47;;;4.32;;
49366;SDS011;35245;52.026;8.540;2022-09-13T00:04:03;5.93;;;4.75;;
49366;SDS011;35245;52.026;8.540;2022-09-13T00:06:32;9.15;;;4.32;;
49366;SDS011;35245;52.026;8.540;2022-09-13T00:08:59;5.88;;;4.40;;
49366;SDS011;35245;52.026;8.540;2022-09-13T00:11:27;6.03;;;4.38;;
49366;SDS011;35245;52.026;8.540;2022-09-13T00:13:55;8.23;;;4.47;;
49366;SDS011;35245;52.026;8.540;2022-09-13T00:16:23;7.25;;;4.30;;
49366;SDS011;35245;52.026;8.540;2022-09-13T00:18:51;5.90;;;4.20;;
49366;SDS011;35245;52.026;8.540;2022-09-13T00:21:20;8.32;;;4.55;;
49366;SDS011;35245;52.026;8.540;2022-09-13T00:23:50;6.38;;;4.22;;
49366;SDS011;35245;52.026;8.540;2022-09-13T00:26:19;5.82;;;4.68;;
49366;SDS011;35245;52.026;8.540;2022-09-13T00:28:47;7.88;;;4.40;;
49366;SDS011;35245;52.026;8.540;2022-09-13T00:31:16;9.18;;;4.80;;
49366;SDS011;35245;52.026;8.540;2022-09-13T00:33:43;7.53;;;4.32;;
49366;SDS011;35245;52.026;8.540;2022-09-13T00:36:10;5.72;;;4.32;;
49366;SDS011;35245;52.026;8.540;2022-09-13T00:38:39;6.88;;;4.72;;
49366;SDS011;35245;52.026;8.540;2022-09-13T00:41:09;7.22;;;4.30;;
49366;SDS011;35245;52.026;8.540;2022-09-13T00:43:41;7.75;;;4.80;;
49366;SDS011;35245;52.026;8.540;2022-09-13T00:46:10;6.20;;;4.38;;
49366;SDS011;35245;52.026;8.540;2022-09-13T00:48:39;6.97;;;4.70;;
49366;SDS011;35245;52.026;8.540;2022-09-13T00:51:06;6.88;;;4.70;;
49366;SDS011;35245;52.026;8.540;2022-09-13T00:53:35;7.03;;;4.40;;
49366;SDS011;35245;52.026;8.540;2022-09-13T00:56:05;8.93;;;4.75;;
49366;SDS011;35245;52.026;8.540;2022-09-13T01:01:04;7.40;;;4.65;;
49366;SDS011;35245;52.026;8.540;2022-09-13T01:03:33;6.25;;;4.65;;
49366;SDS011;35245;52.026;8.540;2022-09-13T01:06:02;6.15;;;4.70;;
49366;SDS011;35245;52.026;8.540;2022-09-13T01:08:32;7.18;;;5.13;;
49366;SDS011;35245;52.026;8.540;2022-09-13T01:11:00;7.38;;;5.03;;
49366;SDS011;35245;52.026;8.540;2022-09-13T01:13:30;6.25;;;4.78;;
49366;SDS011;35245;52.026;8.540;2022-09-13T01:15:59;6.18;;;4.65;;
49366;SDS011;35245;52.026;8.540;2022-09-13T01:18:26;6.80;;;5.10;;
49366;SDS011;35245;52.026;8.540;2022-09-13T01:21:08;6.60;;;5.32;;
49366;SDS011;35245;52.026;8.540;2022-09-13T01:24:09;9.23;;;4.85;;
49366;SDS011;35245;52.026;8.540;2022-09-13T01:30:09;6.22;;;4.95;;
49366;SDS011;35245;52.026;8.540;2022-09-13T01:32:44;6.75;;;5.15;;
49366;SDS011;35245;52.026;8.540;2022-09-13T01:35:21;6.18;;;4.50;;
49366;SDS011;35245;52.026;8.540;2022-09-13T01:37:53;5.10;;;4.47;;
49366;SDS011;35245;52.026;8.540;2022-09-13T01:40:29;6.90;;;4.95;;
49366;SDS011;35245;52.026;8.540;2022-09-13T01:43:08;6.85;;;4.57;;
49366;SDS011;35245;52.026;8.540;2022-09-13T01:45:44;8.53;;;4.90;;
49366;SDS011;35245;52.026;8.540;2022-09-13T01:48:17;6.75;;;5.28;;
49366;SDS011;35245;52.026;8.540;2022-09-13T01:53:18;6.30;;;4.78;;
49366;SDS011;35245;52.026;8.540;2022-09-13T01:55:49;6.32;;;4.78;;
49366;SDS011;35245;52.026;8.540;2022-09-13T01:58:20;7.43;;;4.63;;
49366;SDS011;35245;52.026;8.540;2022-09-13T02:00:53;8.05;;;4.78;;
49366;SDS011;35245;52.026;8.540;2022-09-13T02:03:26;7.38;;;5.13;;
49366;SDS011;35245;52.026;8.540;2022-09-13T02:05:56;6.20;;;4.97;;
49366;SDS011;35245;52.026;8.540;2022-09-13T02:08:27;7.38;;;5.13;;
49366;SDS011;35245;52.026;8.540;2022-09-13T02:11:03;9.88;;;5.07;;
49366;SDS011;35245;52.026;8.540;2022-09-13T02:13:33;8.02;;;4.78;;
49366;SDS011;35245;52.026;8.540;2022-09-13T02:16:05;6.53;;;5.05;;
49366;SDS011;35245;52.026;8.540;2022-09-13T02:18:34;7.57;;;4.80;;
49366;SDS011;35245;52.026;8.540;2022-09-13T02:21:05;7.20;;;5.40;;
49366;SDS011;35245;52.026;8.540;2022-09-13T02:23:36;8.43;;;5.00;;
49366;SDS011;35245;52.026;8.540;2022-09-13T02:26:08;7.57;;;5.22;;
49366;SDS011;35245;52.026;8.540;2022-09-13T02:28:39;8.10;;;5.53;;
49366;SDS011;35245;52.026;8.540;2022-09-13T02:31:14;7.55;;;5.25;;
49366;SDS011;35245;52.026;8.540;2022-09-13T02:33:44;8.15;;;5.32;;
49366;SDS011;35245;52.026;8.540;2022-09-13T02:36:14;7.82;;;5.10;;
49366;SDS011;35245;52.026;8.540;2022-09-13T02:38:45;8.52;;;5.20;;
49366;SDS011;35245;52.026;8.540;2022-09-13T02:41:15;9.65;;;5.80;;
49366;SDS011;35245;52.026;8.540;2022-09-13T02:43:45;6.05;;;5.05;;
49366;SDS011;35245;52.026;8.540;2022-09-13T02:46:30;6.65;;;4.80;;
49366;SDS011;35245;52.026;8.540;2022-09-13T02:49:04;6.82;;;4.85;;
49366;SDS011;35245;52.026;8.540;2022-09-13T02:51:39;7.68;;;5.40;;
49366;SDS011;35245;52.026;8.540;2022-09-13T02:54:11;7.75;;;4.90;;
49366;SDS011;35245;52.026;8.540;2022-09-13T02:56:46;7.80;;;4.75;;
49366;SDS011;35245;52.026;8.540;2022-09-13T02:59:18;6.20;;;4.38;;
49366;SDS011;35245;52.026;8.540;2022-09-13T03:01:48;7.07;;;4.40;;
49366;SDS011;35245;52.026;8.540;2022-09-13T03:04:18;7.68;;;4.28;;
49366;SDS011;35245;52.026;8.540;2022-09-13T03:06:47;8.02;;;4.47;;
49366;SDS011;35245;52.026;8.540;2022-09-13T03:09:15;8.52;;;5.00;;
49366;SDS011;35245;52.026;8.540;2022-09-13T03:11:49;6.20;;;4.13;;
49366;SDS011;35245;52.026;8.540;2022-09-13T03:14:28;8.00;;;4.93;;
49366;SDS011;35245;52.026;8.540;2022-09-13T03:17:05;6.05;;;4.50;;
49366;SDS011;35245;52.026;8.540;2022-09-13T03:19:39;6.70;;;4.72;;
49366;SDS011;35245;52.026;8.540;2022-09-13T03:22:21;5.50;;;4.07;;
49366;SDS011;35245;52.026;8.540;2022-09-13T03:24:55;7.90;;;4.40;;
49366;SDS011;35245;52.026;8.540;2022-09-13T03:29:54;6.70;;;4.60;;
49366;SDS011;35245;52.026;8.540;2022-09-13T03:32:30;6.35;;;4.15;;
49366;SDS011;35245;52.026;8.540;2022-09-13T03:35:03;6.30;;;4.13;;
49366;SDS011;35245;52.026;8.540;2022-09-13T03:37:34;5.22;;;4.25;;
49366;SDS011;35245;52.026;8.540;2022-09-13T03:40:08;7.53;;;4.13;;
49366;SDS011;35245;52.026;8.540;2022-09-13T03:42:40;7.85;;;4.30;;
49366;SDS011;35245;52.026;8.540;2022-09-13T03:47:38;6.65;;;4.05;;
49366;SDS011;35245;52.026;8.540;2022-09-13T03:50:07;6.43;;;4.15;;
49366;SDS011;35245;52.026;8.540;2022-09-13T03:52:34;4.93;;;3.85;;
49366;SDS011;35245;52.026;8.540;2022-09-13T03:55:02;4.82;;;4.03;;
49366;SDS011;35245;52.026;8.540;2022-09-13T03:57:29;6.90;;;4.25;;
49366;SDS011;35245;52.026;8.540;2022-09-13T03:59:56;7.93;;;4.65;;
49366;SDS011;35245;52.026;8.540;2022-09-13T04:02:24;6.90;;;5.07;;
49366;SDS011;35245;52.026;8.540;2022-09-13T04:04:53;6.22;;;4.63;;
49366;SDS011;35245;52.026;8.540;2022-09-13T04:07:21;5.47;;;4.35;;
49366;SDS011;35245;52.026;8.540;2022-09-13T04:09:51;7.73;;;5.17;;
49366;SDS011;35245;52.026;8.540;2022-09-13T04:12:18;6.70;;;4.85;;
49366;SDS011;35245;52.026;8.540;2022-09-13T04:14:46;7.47;;;4.55;;
49366;SDS011;35245;52.026;8.540;2022-09-13T04:17:13;6.35;;;4.32;;
49366;SDS011;35245;52.026;8.540;2022-09-13T04:19:40;9.40;;;5.93;;
49366;SDS011;35245;52.026;8.540;2022-09-13T04:22:11;7.30;;;4.97;;
49366;SDS011;35245;52.026;8.540;2022-09-13T04:24:38;7.88;;;5.47;;
49366;SDS011;35245;52.026;8.540;2022-09-13T04:27:05;7.95;;;5.05;;
49366;SDS011;35245;52.026;8.540;2022-09-13T04:29:33;7.07;;;4.90;;
49366;SDS011;35245;52.026;8.540;2022-09-13T04:32:00;6.38;;;4.90;;
49366;SDS011;35245;52.026;8.540;2022-09-13T04:34:27;6.63;;;5.20;;
49366;SDS011;35245;52.026;8.540;2022-09-13T04:36:54;8.00;;;4.82;;
49366;SDS011;35245;52.026;8.540;2022-09-13T04:39:22;7.43;;;5.10;;
49366;SDS011;35245;52.026;8.540;2022-09-13T04:41:50;6.03;;;4.57;;
49366;SDS011;35245;52.026;8.540;2022-09-13T04:44:19;6.25;;;4.90;;
49366;SDS011;35245;52.026;8.540;2022-09-13T04:46:48;7.95;;;4.65;;
49366;SDS011;35245;52.026;8.540;2022-09-13T04:49:15;6.10;;;4.60;;
49366;SDS011;35245;52.026;8.540;2022-09-13T04:51:44;8.10;;;4.50;;
49366;SDS011;35245;52.026;8.540;2022-09-13T04:54:12;8.68;;;4.80;;
49366;SDS011;35245;52.026;8.540;2022-09-13T04:56:40;7.05;;;5.22;;
49366;SDS011;35245;52.026;8.540;2022-09-13T04:59:07;6.10;;;4.93;;
49366;SDS011;35245;52.026;8.540;2022-09-13T05:01:34;6.13;;;4.72;;
49366;SDS011;35245;52.026;8.540;2022-09-13T05:04:02;7.57;;;5.15;;
49366;SDS011;35245;52.026;8.540;2022-09-13T05:06:29;8.00;;;5.47;;
49366;SDS011;35245;52.026;8.540;2022-09-13T05:08:56;8.20;;;5.25;;
49366;SDS011;35245;52.026;8.540;2022-09-13T05:11:23;8.57;;;5.75;;
49366;SDS011;35245;52.026;8.540;2022-09-13T05:13:53;10.60;;;5.72;;
49366;SDS011;35245;52.026;8.540;2022-09-13T05:16:21;8.35;;;5.93;;
49366;SDS011;35245;52.026;8.540;2022-09-13T05:18:49;7.65;;;5.53;;
49366;SDS011;35245;52.026;8.540;2022-09-13T05:21:17;10.18;;;5.75;;
49366;SDS011;35245;52.026;8.540;2022-09-13T05:23:47;11.90;;;5.80;;
49366;SDS011;35245;52.026;8.540;2022-09-13T05:26:14;7.75;;;5.45;;
49366;SDS011;35245;52.026;8.540;2022-09-13T05:28:41;9.82;;;5.32;;
49366;SDS011;35245;52.026;8.540;2022-09-13T05:31:12;8.43;;;5.63;;
49366;SDS011;35245;52.026;8.540;2022-09-13T05:33:40;12.60;;;5.95;;
49366;SDS011;35245;52.026;8.540;2022-09-13T05:36:08;11.13;;;5.97;;
49366;SDS011;35245;52.026;8.540;2022-09-13T05:38:35;11.02;;;5.70;;
49366;SDS011;35245;52.026;8.540;2022-09-13T05:41:05;12.30;;;6.85;;
49366;SDS011;35245;52.026;8.540;2022-09-13T05:43:32;12.57;;;6.40;;
49366;SDS011;35245;52.026;8.540;2022-09-13T05:46:01;9.52;;;5.63;;
49366;SDS011;35245;52.026;8.540;2022-09-13T05:48:30;8.50;;;5.93;;
49366;SDS011;35245;52.026;8.540;2022-09-13T05:51:02;15.50;;;5.97;;
49366;SDS011;35245;52.026;8.540;2022-09-13T05:53:31;10.20;;;5.75;;
49366;SDS011;35245;52.026;8.540;2022-09-13T05:55:58;8.63;;;5.43;;
49366;SDS011;35245;52.026;8.540;2022-09-13T05:58:25;8.07;;;5.47;;
49366;SDS011;35245;52.026;8.540;2022-09-13T06:00:52;8.63;;;5.43;;
49366;SDS011;35245;52.026;8.540;2022-09-13T06:03:20;11.77;;;6.10;;
49366;SDS011;35245;52.026;8.540;2022-09-13T06:05:48;10.82;;;5.70;;
49366;SDS011;35245;52.026;8.540;2022-09-13T06:08:19;9.88;;;5.60;;
49366;SDS011;35245;52.026;8.540;2022-09-13T06:10:52;10.18;;;5.90;;
49366;SDS011;35245;52.026;8.540;2022-09-13T06:13:20;10.48;;;5.30;;
49366;SDS011;35245;52.026;8.540;2022-09-13T06:15:47;10.27;;;5.68;;
49366;SDS011;35245;52.026;8.540;2022-09-13T06:18:14;12.60;;;5.80;;
49366;SDS011;35245;52.026;8.540;2022-09-13T06:20:41;11.77;;;5.75;;
49366;SDS011;35245;52.026;8.540;2022-09-13T06:23:10;9.98;;;5.85;;
49366;SDS011;35245;52.026;8.540;2022-09-13T06:25:37;7.95;;;5.45;;
49366;SDS011;35245;52.026;8.540;2022-09-13T06:28:04;9.82;;;5.72;;
49366;SDS011;35245;52.026;8.540;2022-09-13T06:30:31;10.43;;;5.43;;
49366;SDS011;35245;52.026;8.540;2022-09-13T06:32:58;9.25;;;5.72;;
49366;SDS011;35245;52.026;8.540;2022-09-13T06:35:25;8.63;;;5.20;;
49366;SDS011;35245;52.026;8.540;2022-09-13T06:37:53;9.02;;;5.70;;
49366;SDS011;35245;52.026;8.540;2022-09-13T06:40:22;9.07;;;5.28;;
49366;SDS011;35245;52.026;8.540;2022-09-13T06:42:50;9.45;;;5.45;;
49366;SDS011;35245;52.026;8.540;2022-09-13T06:45:17;8.75;;;5.03;;
49366;SDS011;35245;52.026;8.540;2022-09-13T06:47:44;10.18;;;5.38;;
49366;SDS011;35245;52.026;8.540;2022-09-13T06:50:11;13.35;;;5.22;;
49366;SDS011;35245;52.026;8.540;2022-09-13T06:52:38;10.80;;;5.47;;
49366;SDS011;35245;52.026;8.540;2022-09-13T06:55:06;11.02;;;6.30;;
49366;SDS011;35245;52.026;8.540;2022-09-13T06:57:35;12.20;;;4.88;;
49366;SDS011;35245;52.026;8.540;2022-09-13T07:00:02;8.40;;;5.95;;
49366;SDS011;35245;52.026;8.540;2022-09-13T07:02:29;8.38;;;5.38;;
49366;SDS011;35245;52.026;8.540;2022-09-13T07:04:56;11.23;;;5.43;;
49366;SDS011;35245;52.026;8.540;2022-09-13T07:07:23;11.20;;;5.85;;
49366;SDS011;35245;52.026;8.540;2022-09-13T07:09:50;8.32;;;5.57;;
49366;SDS011;35245;52.026;8.540;2022-09-13T07:12:17;8.32;;;5.88;;
49366;SDS011;35245;52.026;8.540;2022-09-13T07:14:46;8.85;;;6.18;;
49366;SDS011;35245;52.026;8.540;2022-09-13T07:17:13;8.85;;;5.85;;
49366;SDS011;35245;52.026;8.540;2022-09-13T07:19:40;8.68;;;5.88;;
49366;SDS011;35245;52.026;8.540;2022-09-13T07:22:07;10.32;;;6.65;;
49366;SDS011;35245;52.026;8.540;2022-09-13T07:24:34;8.13;;;6.03;;
49366;SDS011;35245;52.026;8.540;2022-09-13T07:27:01;8.73;;;6.32;;
49366;SDS011;35245;52.026;8.540;2022-09-13T07:29:28;11.45;;;6.43;;
49366;SDS011;35245;52.026;8.540;2022-09-13T07:31:56;10.85;;;7.25;;
49366;SDS011;35245;52.026;8.540;2022-09-13T07:34:24;12.82;;;6.40;;
49366;SDS011;35245;52.026;8.540;2022-09-13T07:36:51;11.10;;;6.57;;
49366;SDS011;35245;52.026;8.540;2022-09-13T07:39:19;8.75;;;5.82;;
49366;SDS011;35245;52.026;8.540;2022-09-13T07:41:46;11.52;;;6.88;;
49366;SDS011;35245;52.026;8.540;2022-09-13T07:44:13;10.98;;;6.90;;
49366;SDS011;35245;52.026;8.540;2022-09-13T07:46:40;7.03;;;5.95;;
49366;SDS011;35245;52.026;8.540;2022-09-13T07:49:10;10.77;;;6.15;;
49366;SDS011;35245;52.026;8.540;2022-09-13T07:51:38;10.48;;;6.07;;
49366;SDS011;35245;52.026;8.540;2022-09-13T07:54:06;9.07;;;6.32;;
49366;SDS011;35245;52.026;8.540;2022-09-13T07:56:37;9.13;;;6.93;;
49366;SDS011;35245;52.026;8.540;2022-09-13T07:59:05;13.80;;;7.53;;
49366;SDS011;35245;52.026;8.540;2022-09-13T08:01:33;13.05;;;7.03;;
49366;SDS011;35245;52.026;8.540;2022-09-13T08:04:02;11.25;;;6.82;;
49366;SDS011;35245;52.026;8.540;2022-09-13T08:09:00;12.18;;;8.32;;
49366;SDS011;35245;52.026;8.540;2022-09-13T08:11:29;10.50;;;7.78;;
49366;SDS011;35245;52.026;8.540;2022-09-13T08:13:58;12.43;;;8.40;;
49366;SDS011;35245;52.026;8.540;2022-09-13T08:16:26;14.18;;;8.93;;
49366;SDS011;35245;52.026;8.540;2022-09-13T08:18:54;14.50;;;9.23;;
49366;SDS011;35245;52.026;8.540;2022-09-13T08:21:22;13.30;;;8.13;;
49366;SDS011;35245;52.026;8.540;2022-09-13T08:23:54;15.02;;;8.70;;
49366;SDS011;35245;52.026;8.540;2022-09-13T08:26:24;12.77;;;8.77;;
49366;SDS011;35245;52.026;8.540;2022-09-13T08:28:54;14.63;;;9.50;;
49366;SDS011;35245;52.026;8.540;2022-09-13T08:31:22;14.82;;;10.63;;
49366;SDS011;35245;52.026;8.540;2022-09-13T08:33:50;12.85;;;9.57;;
49366;SDS011;35245;52.026;8.540;2022-09-13T08:36:18;12.80;;;9.55;;
49366;SDS011;35245;52.026;8.540;2022-09-13T08:38:48;14.43;;;9.23;;
49366;SDS011;35245;52.026;8.540;2022-09-13T08:41:22;12.18;;;8.88;;
49366;SDS011;35245;52.026;8.540;2022-09-13T08:43:59;13.93;;;9.70;;
49366;SDS011;35245;52.026;8.540;2022-09-13T08:46:31;15.93;;;10.32;;
49366;SDS011;35245;52.026;8.540;2022-09-13T08:49:00;13.45;;;10.82;;
49366;SDS011;35245;52.026;8.540;2022-09-13T08:51:30;13.77;;;10.43;;
49366;SDS011;35245;52.026;8.540;2022-09-13T08:54:00;21.38;;;12.23;;
49366;SDS011;35245;52.026;8.540;2022-09-13T08:56:31;16.17;;;11.85;;
49366;SDS011;35245;52.026;8.540;2022-09-13T09:02:18;16.58;;;11.85;;
49366;SDS011;35245;52.026;8.540;2022-09-13T09:04:51;17.85;;;11.88;;
49366;SDS011;35245;52.026;8.540;2022-09-13T09:09:50;15.48;;;11.68;;
49366;SDS011;35245;52.026;8.540;2022-09-13T09:12:22;17.08;;;11.27;;
49366;SDS011;35245;52.026;8.540;2022-09-13T09:14:56;19.00;;;12.63;;
49366;SDS011;35245;52.026;8.540;2022-09-13T09:17:27;15.55;;;11.95;;
49366;SDS011;35245;52.026;8.540;2022-09-13T09:19:59;15.25;;;11.00;;
49366;SDS011;35245;52.026;8.540;2022-09-13T09:22:32;14.80;;;11.15;;
49366;SDS011;35245;52.026;8.540;2022-09-13T09:25:01;22.30;;;10.85;;
49366;SDS011;35245;52.026;8.540;2022-09-13T09:27:30;15.82;;;10.82;;
49366;SDS011;35245;52.026;8.540;2022-09-13T09:29:57;15.55;;;10.27;;
49366;SDS011;35245;52.026;8.540;2022-09-13T09:32:35;12.55;;;9.38;;
49366;SDS011;35245;52.026;8.540;2022-09-13T09:35:13;14.85;;;9.07;;
49366;SDS011;35245;52.026;8.540;2022-09-13T09:37:59;14.38;;;9.63;;
49366;SDS011;35245;52.026;8.540;2022-09-13T09:40:37;13.10;;;8.60;;
49366;SDS011;35245;52.026;8.540;2022-09-13T09:43:11;12.88;;;9.48;;
49366;SDS011;35245;52.026;8.540;2022-09-13T09:45:41;13.93;;;10.10;;
49366;SDS011;35245;52.026;8.540;2022-09-13T09:48:11;14.00;;;9.98;;
49366;SDS011;35245;52.026;8.540;2022-09-13T09:50:43;13.25;;;9.13;;
49366;SDS011;35245;52.026;8.540;2022-09-13T09:53:13;12.95;;;8.77;;
49366;SDS011;35245;52.026;8.540;2022-09-13T09:55:49;13.65;;;9.65;;
49366;SDS011;35245;52.026;8.540;2022-09-13T09:58:23;14.07;;;9.90;;
49366;SDS011;35245;52.026;8.540;2022-09-13T10:01:02;13.02;;;9.45;;
49366;SDS011;35245;52.026;8.540;2022-09-13T10:03:31;15.73;;;10.05;;
49366;SDS011;35245;52.026;8.540;2022-09-13T10:06:03;14.18;;;9.50;;
49366;SDS011;35245;52.026;8.540;2022-09-13T10:08:32;14.43;;;9.75;;
49366;SDS011;35245;52.026;8.540;2022-09-13T10:11:01;15.32;;;10.65;;
49366;SDS011;35245;52.026;8.540;2022-09-13T10:13:29;12.77;;;9.68;;
49366;SDS011;35245;52.026;8.540;2022-09-13T10:15:57;12.93;;;9.93;;
49366;SDS011;35245;52.026;8.540;2022-09-13T10:18:28;15.68;;;10.40;;
49366;SDS011;35245;52.026;8.540;2022-09-13T10:21:00;12.30;;;8.82;;
49366;SDS011;35245;52.026;8.540;2022-09-13T10:23:29;13.60;;;9.40;;
49366;SDS011;35245;52.026;8.540;2022-09-13T10:26:04;11.35;;;8.43;;
49366;SDS011;35245;52.026;8.540;2022-09-13T10:28:35;11.88;;;8.63;;
49366;SDS011;35245;52.026;8.540;2022-09-13T10:31:09;9.43;;;7.30;;
49366;SDS011;35245;52.026;8.540;2022-09-13T10:33:38;9.95;;;7.88;;
49366;SDS011;35245;52.026;8.540;2022-09-13T10:36:11;14.68;;;8.75;;
49366;SDS011;35245;52.026;8.540;2022-09-13T10:38:40;11.38;;;8.48;;
49366;SDS011;35245;52.026;8.540;2022-09-13T10:41:10;13.75;;;8.13;;
49366;SDS011;35245;52.026;8.540;2022-09-13T10:43:47;13.45;;;9.13;;
49366;SDS011;35245;52.026;8.540;2022-09-13T10:46:20;12.60;;;8.48;;
49366;SDS011;35245;52.026;8.540;2022-09-13T10:48:48;12.73;;;8.80;;
49366;SDS011;35245;52.026;8.540;2022-09-13T10:51:22;11.25;;;8.05;;
49366;SDS011;35245;52.026;8.540;2022-09-13T10:54:08;10.57;;;8.02;;
49366;SDS011;35245;52.026;8.540;2022-09-13T10:56:46;10.88;;;7.80;;
49366;SDS011;35245;52.026;8.540;2022-09-13T10:59:16;12.63;;;7.50;;
49366;SDS011;35245;52.026;8.540;2022-09-13T11:01:48;10.75;;;8.65;;
49366;SDS011;35245;52.026;8.540;2022-09-13T11:04:35;9.55;;;7.28;;
49366;SDS011;35245;52.026;8.540;2022-09-13T11:07:15;11.27;;;7.60;;
49366;SDS011;35245;52.026;8.540;2022-09-13T11:09:54;13.10;;;7.72;;
49366;SDS011;35245;52.026;8.540;2022-09-13T11:12:26;11.75;;;7.28;;
49366;SDS011;35245;52.026;8.540;2022-09-13T11:15:00;11.85;;;7.97;;
49366;SDS011;35245;52.026;8.540;2022-09-13T11:17:38;12.02;;;8.38;;
49366;SDS011;35245;52.026;8.540;2022-09-13T11:20:20;10.05;;;7.30;;
49366;SDS011;35245;52.026;8.540;2022-09-13T11:22:58;10.85;;;8.57;;
49366;SDS011;35245;52.026;8.540;2022-09-13T11:25:37;11.15;;;7.55;;
49366;SDS011;35245;52.026;8.540;2022-09-13T11:30:49;11.27;;;7.57;;
49366;SDS011;35245;52.026;8.540;2022-09-13T11:33:38;11.93;;;7.32;;
49366;SDS011;35245;52.026;8.540;2022-09-13T11:36:22;10.40;;;7.55;;
49366;SDS011;35245;52.026;8.540;2022-09-13T11:38:58;12.20;;;8.15;;
49366;SDS011;35245;52.026;8.540;2022-09-13T11:41:31;15.45;;;8.07;;
49366;SDS011;35245;52.026;8.540;2022-09-13T11:44:10;13.02;;;8.50;;
49366;SDS011;35245;52.026;8.540;2022-09-13T11:47:02;13.85;;;8.93;;
49366;SDS011;35245;52.026;8.540;2022-09-13T11:49:36;13.05;;;8.93;;
49366;SDS011;35245;52.026;8.540;2022-09-13T11:52:12;13.48;;;9.77;;
49366;SDS011;35245;52.026;8.540;2022-09-13T11:54:50;13.15;;;8.68;;
49366;SDS011;35245;52.026;8.540;2022-09-13T11:57:26;11.75;;;9.23;;
49366;SDS011;35245;52.026;8.540;2022-09-13T11:59:56;13.27;;;9.30;;
49366;SDS011;35245;52.026;8.540;2022-09-13T12:02:31;11.90;;;8.45;;
49366;SDS011;35245;52.026;8.540;2022-09-13T12:05:05;10.05;;;7.30;;
49366;SDS011;35245;52.026;8.540;2022-09-13T12:07:40;14.80;;;10.05;;
49366;SDS011;35245;52.026;8.540;2022-09-13T12:10:12;13.10;;;10.25;;
49366;SDS011;35245;52.026;8.540;2022-09-13T12:12:42;15.45;;;10.07;;
49366;SDS011;35245;52.026;8.540;2022-09-13T12:15:14;18.65;;;11.73;;
49366;SDS011;35245;52.026;8.540;2022-09-13T12:17:45;19.08;;;10.90;;
49366;SDS011;35245;52.026;8.540;2022-09-13T12:20:19;12.88;;;9.55;;
49366;SDS011;35245;52.026;8.540;2022-09-13T12:22:57;15.45;;;11.13;;
49366;SDS011;35245;52.026;8.540;2022-09-13T12:25:27;12.27;;;10.30;;
49366;SDS011;35245;52.026;8.540;2022-09-13T12:28:01;15.73;;;10.65;;
49366;SDS011;35245;52.026;8.540;2022-09-13T12:30:32;15.27;;;10.32;;
49366;SDS011;35245;52.026;8.540;2022-09-13T12:33:06;11.75;;;9.77;;
49366;SDS011;35245;52.026;8.540;2022-09-13T12:35:35;15.02;;;9.75;;
49366;SDS011;35245;52.026;8.540;2022-09-13T12:38:18;18.10;;;11.07;;
49366;SDS011;35245;52.026;8.540;2022-09-13T12:41:03;12.77;;;9.07;;
49366;SDS011;35245;52.026;8.540;2022-09-13T12:49:50;17.17;;;10.25;;
49366;SDS011;35245;52.026;8.540;2022-09-13T12:52:31;13.48;;;9.85;;
49366;SDS011;35245;52.026;8.540;2022-09-13T12:57:48;12.43;;;7.97;;
49366;SDS011;35245;52.026;8.540;2022-09-13T13:00:18;15.07;;;8.40;;
49366;SDS011;35245;52.026;8.540;2022-09-13T13:02:49;17.25;;;8.63;;
49366;SDS011;35245;52.026;8.540;2022-09-13T13:05:23;13.85;;;7.25;;
49366;SDS011;35245;52.026;8.540;2022-09-13T13:07:53;14.68;;;7.65;;
49366;SDS011;35245;52.026;8.540;2022-09-13T13:10:23;10.10;;;5.97;;
49366;SDS011;35245;52.026;8.540;2022-09-13T13:12:52;11.57;;;6.47;;
49366;SDS011;35245;52.026;8.540;2022-09-13T13:18:27;11.25;;;6.07;;
49366;SDS011;35245;52.026;8.540;2022-09-13T13:21:04;9.40;;;6.18;;
49366;SDS011;35245;52.026;8.540;2022-09-13T13:29:16;11.23;;;5.95;;
49366;SDS011;35245;52.026;8.540;2022-09-13T13:31:45;12.43;;;6.57;;
49366;SDS011;35245;52.026;8.540;2022-09-13T13:34:36;11.90;;;7.07;;
49366;SDS011;35245;52.026;8.540;2022-09-13T13:40:09;10.00;;;6.63;;
49366;SDS011;35245;52.026;8.540;2022-09-13T13:42:38;11.88;;;6.20;;
49366;SDS011;35245;52.026;8.540;2022-09-13T13:50:32;7.63;;;5.47;;
49366;SDS011;35245;52.026;8.540;2022-09-13T13:55:47;8.30;;;4.82;;
49366;SDS011;35245;52.026;8.540;2022-09-13T13:58:24;10.20;;;4.40;;
49366;SDS011;35245;52.026;8.540;2022-09-13T14:00:58;9.27;;;4.63;;
49366;SDS011;35245;52.026;8.540;2022-09-13T14:03:27;7.32;;;4.07;;
49366;SDS011;35245;52.026;8.540;2022-09-13T14:06:04;8.73;;;4.38;;
49366;SDS011;35245;52.026;8.540;2022-09-13T14:08:39;6.45;;;4.13;;
49366;SDS011;35245;52.026;8.540;2022-09-13T14:11:14;6.45;;;4.03;;
49366;SDS011;35245;52.026;8.540;2022-09-13T14:13:51;5.82;;;3.75;;
49366;SDS011;35245;52.026;8.540;2022-09-13T14:16:26;8.45;;;5.10;;
49366;SDS011;35245;52.026;8.540;2022-09-13T14:19:17;6.82;;;4.38;;
49366;SDS011;35245;52.026;8.540;2022-09-13T14:24:36;10.80;;;5.20;;
49366;SDS011;35245;52.026;8.540;2022-09-13T14:27:04;9.23;;;5.03;;
49366;SDS011;35245;52.026;8.540;2022-09-13T14:29:31;13.38;;;5.20;;
49366;SDS011;35245;52.026;8.540;2022-09-13T14:32:01;11.95;;;5.35;;
49366;SDS011;35245;52.026;8.540;2022-09-13T14:34:31;9.05;;;4.80;;
49366;SDS011;35245;52.026;8.540;2022-09-13T14:37:00;7.35;;;4.80;;
49366;SDS011;35245;52.026;8.540;2022-09-13T14:39:28;14.15;;;6.05;;
49366;SDS011;35245;52.026;8.540;2022-09-13T14:42:00;9.40;;;5.25;;
49366;SDS011;35245;52.026;8.540;2022-09-13T14:44:28;8.07;;;4.47;;
49366;SDS011;35245;52.026;8.540;2022-09-13T14:47:03;8.13;;;4.30;;
49366;SDS011;35245;52.026;8.540;2022-09-13T14:49:34;5.38;;;3.88;;
49366;SDS011;35245;52.026;8.540;2022-09-13T14:52:04;6.13;;;3.80;;
49366;SDS011;35245;52.026;8.540;2022-09-13T14:54:34;4.68;;;3.53;;
49366;SDS011;35245;52.026;8.540;2022-09-13T14:57:05;4.07;;;2.88;;
49366;SDS011;35245;52.026;8.540;2022-09-13T14:59:34;7.50;;;4.15;;
49366;SDS011;35245;52.026;8.540;2022-09-13T15:02:13;6.28;;;3.65;;
49366;SDS011;35245;52.026;8.540;2022-09-13T15:04:43;5.10;;;3.00;;
49366;SDS011;35245;52.026;8.540;2022-09-13T15:07:17;4.30;;;2.53;;
49366;SDS011;35245;52.026;8.540;2022-09-13T15:09:47;3.78;;;2.72;;
49366;SDS011;35245;52.026;8.540;2022-09-13T15:12:21;6.90;;;3.03;;
49366;SDS011;35245;52.026;8.540;2022-09-13T15:17:56;4.60;;;2.53;;
49366;SDS011;35245;52.026;8.540;2022-09-13T15:20:28;4.07;;;1.73;;
49366;SDS011;35245;52.026;8.540;2022-09-13T15:22:56;5.03;;;2.43;;
49366;SDS011;35245;52.026;8.540;2022-09-13T15:25:24;2.88;;;1.85;;
49366;SDS011;35245;52.026;8.540;2022-09-13T15:27:54;7.43;;;2.28;;
49366;SDS011;35245;52.026;8.540;2022-09-13T15:30:22;3.15;;;1.50;;
49366;SDS011;35245;52.026;8.540;2022-09-13T15:33:04;4.70;;;1.50;;
49366;SDS011;35245;52.026;8.540;2022-09-13T15:35:34;4.65;;;1.65;;
49366;SDS011;35245;52.026;8.540;2022-09-13T15:38:14;4.03;;;2.78;;
49366;SDS011;35245;52.026;8.540;2022-09-13T15:40:52;3.63;;;2.08;;
49366;SDS011;35245;52.026;8.540;2022-09-13T15:43:26;6.13;;;1.90;;
49366;SDS011;35245;52.026;8.540;2022-09-13T15:45:54;3.20;;;1.63;;
49366;SDS011;35245;52.026;8.540;2022-09-13T15:48:24;5.00;;;1.73;;
49366;SDS011;35245;52.026;8.540;2022-09-13T15:51:03;2.33;;;1.50;;
49366;SDS011;35245;52.026;8.540;2022-09-13T15:53:32;2.95;;;1.58;;
49366;SDS011;35245;52.026;8.540;2022-09-13T15:56:00;3.42;;;1.65;;
49366;SDS011;35245;52.026;8.540;2022-09-13T15:58:30;3.95;;;2.25;;
49366;SDS011;35245;52.026;8.540;2022-09-13T16:00:57;5.28;;;2.03;;
49366;SDS011;35245;52.026;8.540;2022-09-13T16:03:25;3.15;;;1.40;;